Boutte, LA (70039)

1:42 PM CST on March 05, 2015 (GMT -0600)
Kirk Street | Change Station
CLOSE
Current Station
Personal Weather Station
Location: Paradis, LA
Elevation: 10 ft
Nearby Weather Stations
Active Advisory: Wind Advisory Active Notice: Record Report

Elev 10 ft 29.88 °N, 90.43 °W | Updated 1 second ago

Overcast
Overcast
41.0 °F
Feels Like 32 °F
N
19.6
Wind Variable Wind from NW
Gusts 19.6 mph

Today
High -- | Low -- °F
--% Chance of Precip.
Yesterday
High -- | Low -- °F
Precip. -- in
6:23 AM 6:03 PM
Full, 100% visible
Pressure 30.26 in
Visibility 10.0 miles
Clouds Overcast 1300 ft
Windchill 32 °F
Dew Point 33 °F
Humidity 73%
Rainfall in
Snow Depth Not available.
UV 3 out of 12
Pollen 5.20 out of 12
Air Quality Not available.
Flu Activity Not available.
METAR KMSY 051853Z 36020G29KT 10SM OVC013 06/02 A3025 RMK AO2 PK WND 35029/1851 SLP245 T00560022

More Conditions Fewer Conditions

Pressure 30.26 in
Visibility 10.0 miles
Clouds Overcast 1300 ft
Windchill 32 °F
Dew Point 33 °F
Humidity 73%
Rainfall in
Snow Depth Not available.
UV 3 out of 12
Pollen 5.20 out of 12
Air Quality Not available.
Flu Activity Not available.
METAR KMSY 051853Z 36020G29KT 10SM OVC013 06/02 A3025 RMK AO2 PK WND 35029/1851 SLP245 T00560022

More Conditions Fewer Conditions

10-Day Weather Forecast

Almanac

Astronomy

Mar. 05, 2015 Rise Set
Actual Time
Civil Twilight
Nautical Twilight
Astronomical Twilight
Moon
Length of Visible Light
Length of Day
Tomorrow will be .
, % of the Moon is Illuminated

Today's Extremes

State Highs State Lows

Community

WunderPhotos

Upload Photos

1,802,929 photos uploaded!

WunderBlogs® & News

Nearby

Air Quality

  Air Quality AQ Index Pollutant
Not available.

Snow Depth

Station Depth Elevation

Earthquake Activity

City Distance Mag. Time & Date
Minimum magnitude displayed is 2.5.

Coastal Water Temperatures

Place Temperature

Nearby Weather Stations

Wind Advisory
Statement as of 6:54 AM CST on March 05, 2015

... Wind Advisory now in effect until midnight CST tonight...

* timing... through midnight tonight.

* Winds... sustained north winds 20 to 30 mph with higher gusts.

* Duration... around 15 to 18 hours of strong gusty winds can be
expected.

* Impacts... strong winds will make driving difficult...
especially on east to west oriented roadways and bridges.
Additionally... small tree limbs could be blown down and
unsecured light weight items such as trash cans and light
outdoor furniture could be blown around.

Precautionary/preparedness actions...

A Wind Advisory means that winds of 26 to 39 mph are expected.
Winds this strong can make driving difficult... especially for
high profile vehicles. Use extra caution.



TD